Aeroporto :
LOGIN :

Iscrizione | Disclaimer

   EN    FR    IT 

 










Sommario :    VFR   VFR Marginale   IFR   IFR Intensivo   IFR Molto Intensivo
Visibilità : 
Base nubi : 
>= 8 km
>= 3000ft
5 / 8 km
1000 / 3000 ft
1500m / 5 km
500 / 1000 ft
800 / 1500m
200 / 500 ft
< 800m
< 200 ft
Simboli :   Temporali  Nebbia  Neve Forte  Precipitazioni Forti  Vento > 20 kt
SIGMETs :   Varie  Temporali  Ghiacco  Turbolenza  Onda orograficha  Ceneri Vulcaniche






- Altitudine del aeroporto : 126 ft
- Codice IATA : WIC


EGPC - Wick

ULTIMO METAR :
  • 200350Z AUTO 27003KT 9999 SCT035/// 05/02 Q0991

METARs OBSOLETI :
  • 200320Z AUTO 23004KT 200V260 9999 NCD 05/02 Q0991
  • 200250Z AUTO 20007KT 9999 NCD 06/03 Q0991
  • 200220Z AUTO 20005KT 9999 NCD 05/04 Q0991
  • 200150Z AUTO 16003KT 9999 NCD 05/03 Q0991
  • 200120Z AUTO 19004KT 9999 NCD 05/03 Q0991

TAF TAF EGPC
Valido dal 20 a 03 ore il 20 a 12 ore UTC


200157Z 2003/2012 23009KT 9999 FEW012 SCT025
PROB30
TEMPO 2003/2007 5000 SHRA BKN010CB
PROB40
TEMPO 2010/2012 26015G25KT 6000 SHRASN BKN012CB
ATIS : +44 1955 607 596



MetMap, La meteo Aeronautica in un colpo d'occhio ! - Copyright ORBIFLY Dicembre 2007 - Disclaimer

ORBIFLY MET'MAP TEAM :

Programmazione e sviluppo : Alexandra Zaïnal
Concezione : Baudouin d'Aumeries
Aiuto per la programmazione : Marc-Olivier Méhu
Supporto tecnico e logistico : Manuel Goepfert
Aiuto per la traduzione : Arnaldo La Scala

Contatto : metmap@orbifly.com




FONTI E CREDITI :

   NOAA